sensor_id;sensor_type;location;lat;lon;timestamp;P1;durP1;ratioP1;P2;durP2;ratioP2
21822;SDS011;11074;48.596;9.238;2023-07-02T00:01:22;2.67;;;1.63;;
21822;SDS011;11074;48.596;9.238;2023-07-02T00:03:48;3.15;;;1.50;;
21822;SDS011;11074;48.596;9.238;2023-07-02T00:06:13;1.73;;;1.38;;
21822;SDS011;11074;48.596;9.238;2023-07-02T00:08:39;2.65;;;1.67;;
21822;SDS011;11074;48.596;9.238;2023-07-02T00:11:05;3.47;;;1.88;;
21822;SDS011;11074;48.596;9.238;2023-07-02T00:13:31;3.50;;;1.73;;
21822;SDS011;11074;48.596;9.238;2023-07-02T00:15:57;2.60;;;1.67;;
21822;SDS011;11074;48.596;9.238;2023-07-02T00:18:23;2.95;;;1.85;;
21822;SDS011;11074;48.596;9.238;2023-07-02T00:20:58;4.68;;;2.00;;
21822;SDS011;11074;48.596;9.238;2023-07-02T00:23:27;5.43;;;2.20;;
21822;SDS011;11074;48.596;9.238;2023-07-02T00:25:54;3.45;;;2.00;;
21822;SDS011;11074;48.596;9.238;2023-07-02T00:28:21;3.60;;;2.05;;
21822;SDS011;11074;48.596;9.238;2023-07-02T00:30:46;2.88;;;2.22;;
21822;SDS011;11074;48.596;9.238;2023-07-02T00:33:12;4.10;;;2.08;;
21822;SDS011;11074;48.596;9.238;2023-07-02T00:35:38;3.40;;;2.25;;
21822;SDS011;11074;48.596;9.238;2023-07-02T00:38:03;3.47;;;1.92;;
21822;SDS011;11074;48.596;9.238;2023-07-02T00:40:29;4.88;;;2.00;;
21822;SDS011;11074;48.596;9.238;2023-07-02T00:42:55;2.92;;;2.10;;
21822;SDS011;11074;48.596;9.238;2023-07-02T00:45:21;4.00;;;2.00;;
21822;SDS011;11074;48.596;9.238;2023-07-02T00:47:47;4.35;;;1.98;;
21822;SDS011;11074;48.596;9.238;2023-07-02T00:50:14;3.28;;;2.10;;
21822;SDS011;11074;48.596;9.238;2023-07-02T00:52:40;6.88;;;2.17;;
21822;SDS011;11074;48.596;9.238;2023-07-02T00:55:05;5.13;;;2.05;;
21822;SDS011;11074;48.596;9.238;2023-07-02T00:57:32;3.25;;;1.90;;
21822;SDS011;11074;48.596;9.238;2023-07-02T00:59:58;4.18;;;1.95;;
21822;SDS011;11074;48.596;9.238;2023-07-02T01:02:27;3.00;;;2.08;;
21822;SDS011;11074;48.596;9.238;2023-07-02T01:04:54;4.00;;;2.10;;
21822;SDS011;11074;48.596;9.238;2023-07-02T01:07:23;5.80;;;1.95;;
21822;SDS011;11074;48.596;9.238;2023-07-02T01:09:49;3.67;;;2.45;;
21822;SDS011;11074;48.596;9.238;2023-07-02T01:12:15;2.65;;;1.98;;
21822;SDS011;11074;48.596;9.238;2023-07-02T01:14:52;5.20;;;2.08;;
21822;SDS011;11074;48.596;9.238;2023-07-02T01:17:22;2.38;;;1.98;;
21822;SDS011;11074;48.596;9.238;2023-07-02T01:19:57;4.03;;;1.98;;
21822;SDS011;11074;48.596;9.238;2023-07-02T01:22:25;5.18;;;2.13;;
21822;SDS011;11074;48.596;9.238;2023-07-02T01:24:53;6.13;;;1.80;;
21822;SDS011;11074;48.596;9.238;2023-07-02T01:27:20;4.07;;;2.40;;
21822;SDS011;11074;48.596;9.238;2023-07-02T01:29:46;4.20;;;2.20;;
21822;SDS011;11074;48.596;9.238;2023-07-02T01:32:16;4.03;;;2.08;;
21822;SDS011;11074;48.596;9.238;2023-07-02T01:34:42;3.47;;;1.92;;
21822;SDS011;11074;48.596;9.238;2023-07-02T01:37:08;3.28;;;1.92;;
21822;SDS011;11074;48.596;9.238;2023-07-02T01:39:34;2.90;;;1.88;;
21822;SDS011;11074;48.596;9.238;2023-07-02T01:42:10;2.15;;;1.77;;
21822;SDS011;11074;48.596;9.238;2023-07-02T01:44:41;2.97;;;2.10;;
21822;SDS011;11074;48.596;9.238;2023-07-02T01:47:12;3.85;;;2.20;;
21822;SDS011;11074;48.596;9.238;2023-07-02T01:49:38;5.13;;;2.00;;
21822;SDS011;11074;48.596;9.238;2023-07-02T01:52:04;2.58;;;2.10;;
21822;SDS011;11074;48.596;9.238;2023-07-02T01:54:32;4.00;;;2.22;;
21822;SDS011;11074;48.596;9.238;2023-07-02T01:57:00;3.00;;;2.00;;
21822;SDS011;11074;48.596;9.238;2023-07-02T01:59:25;6.47;;;2.50;;
21822;SDS011;11074;48.596;9.238;2023-07-02T02:01:51;3.47;;;1.92;;
21822;SDS011;11074;48.596;9.238;2023-07-02T02:04:18;2.72;;;2.30;;
21822;SDS011;11074;48.596;9.238;2023-07-02T02:06:43;3.17;;;2.28;;
21822;SDS011;11074;48.596;9.238;2023-07-02T02:09:09;2.33;;;2.05;;
21822;SDS011;11074;48.596;9.238;2023-07-02T02:11:39;3.60;;;2.00;;
21822;SDS011;11074;48.596;9.238;2023-07-02T02:14:07;3.78;;;2.60;;
21822;SDS011;11074;48.596;9.238;2023-07-02T02:16:33;2.97;;;2.10;;
21822;SDS011;11074;48.596;9.238;2023-07-02T02:18:59;4.88;;;2.65;;
21822;SDS011;11074;48.596;9.238;2023-07-02T02:21:25;2.53;;;2.28;;
21822;SDS011;11074;48.596;9.238;2023-07-02T02:23:52;4.35;;;1.98;;
21822;SDS011;11074;48.596;9.238;2023-07-02T02:26:18;4.25;;;2.10;;
21822;SDS011;11074;48.596;9.238;2023-07-02T02:28:46;4.95;;;2.15;;
21822;SDS011;11074;48.596;9.238;2023-07-02T02:31:13;3.92;;;2.30;;
21822;SDS011;11074;48.596;9.238;2023-07-02T02:33:40;7.70;;;2.20;;
21822;SDS011;11074;48.596;9.238;2023-07-02T02:36:05;4.40;;;2.53;;
21822;SDS011;11074;48.596;9.238;2023-07-02T02:38:31;4.03;;;2.22;;
21822;SDS011;11074;48.596;9.238;2023-07-02T02:40:58;4.03;;;2.15;;
21822;SDS011;11074;48.596;9.238;2023-07-02T02:43:24;3.95;;;2.40;;
21822;SDS011;11074;48.596;9.238;2023-07-02T02:45:50;5.38;;;2.50;;
21822;SDS011;11074;48.596;9.238;2023-07-02T02:48:15;2.83;;;2.20;;
21822;SDS011;11074;48.596;9.238;2023-07-02T02:50:41;3.47;;;2.30;;
21822;SDS011;11074;48.596;9.238;2023-07-02T02:53:08;4.88;;;2.22;;
21822;SDS011;11074;48.596;9.238;2023-07-02T02:55:35;3.75;;;2.10;;
21822;SDS011;11074;48.596;9.238;2023-07-02T02:58:01;3.13;;;2.10;;
21822;SDS011;11074;48.596;9.238;2023-07-02T03:00:28;3.88;;;2.08;;
21822;SDS011;11074;48.596;9.238;2023-07-02T03:02:54;4.28;;;2.40;;
21822;SDS011;11074;48.596;9.238;2023-07-02T03:05:20;3.33;;;2.35;;
21822;SDS011;11074;48.596;9.238;2023-07-02T03:07:50;3.13;;;2.40;;
21822;SDS011;11074;48.596;9.238;2023-07-02T03:10:16;4.20;;;2.58;;
21822;SDS011;11074;48.596;9.238;2023-07-02T03:12:42;4.25;;;2.30;;
21822;SDS011;11074;48.596;9.238;2023-07-02T03:15:08;4.07;;;2.47;;
21822;SDS011;11074;48.596;9.238;2023-07-02T03:17:34;4.95;;;2.75;;
21822;SDS011;11074;48.596;9.238;2023-07-02T03:20:00;6.45;;;2.83;;
21822;SDS011;11074;48.596;9.238;2023-07-02T03:22:27;4.38;;;2.67;;
21822;SDS011;11074;48.596;9.238;2023-07-02T03:24:52;3.28;;;2.45;;
21822;SDS011;11074;48.596;9.238;2023-07-02T03:27:18;5.63;;;2.63;;
21822;SDS011;11074;48.596;9.238;2023-07-02T03:29:44;5.15;;;2.38;;
21822;SDS011;11074;48.596;9.238;2023-07-02T03:32:09;3.05;;;2.40;;
21822;SDS011;11074;48.596;9.238;2023-07-02T03:34:35;3.63;;;2.47;;
21822;SDS011;11074;48.596;9.238;2023-07-02T03:37:01;3.30;;;2.35;;
21822;SDS011;11074;48.596;9.238;2023-07-02T03:39:26;3.38;;;2.10;;
21822;SDS011;11074;48.596;9.238;2023-07-02T03:41:52;3.75;;;2.40;;
21822;SDS011;11074;48.596;9.238;2023-07-02T03:44:17;4.75;;;2.75;;
21822;SDS011;11074;48.596;9.238;2023-07-02T03:46:44;4.47;;;2.50;;
21822;SDS011;11074;48.596;9.238;2023-07-02T03:49:10;4.18;;;2.35;;
21822;SDS011;11074;48.596;9.238;2023-07-02T03:51:36;4.07;;;2.50;;
21822;SDS011;11074;48.596;9.238;2023-07-02T03:54:01;4.80;;;2.60;;
21822;SDS011;11074;48.596;9.238;2023-07-02T03:56:27;3.53;;;2.50;;
21822;SDS011;11074;48.596;9.238;2023-07-02T03:58:53;3.75;;;2.45;;
21822;SDS011;11074;48.596;9.238;2023-07-02T04:01:19;4.55;;;2.78;;
21822;SDS011;11074;48.596;9.238;2023-07-02T04:03:48;4.97;;;2.80;;
21822;SDS011;11074;48.596;9.238;2023-07-02T04:06:15;3.47;;;2.25;;
21822;SDS011;11074;48.596;9.238;2023-07-02T04:08:41;3.70;;;2.60;;
21822;SDS011;11074;48.596;9.238;2023-07-02T04:11:08;4.03;;;2.08;;
21822;SDS011;11074;48.596;9.238;2023-07-02T04:13:35;4.45;;;2.25;;
21822;SDS011;11074;48.596;9.238;2023-07-02T04:16:02;4.22;;;3.08;;
21822;SDS011;11074;48.596;9.238;2023-07-02T04:18:28;5.75;;;2.97;;
21822;SDS011;11074;48.596;9.238;2023-07-02T04:20:54;3.67;;;2.47;;
21822;SDS011;11074;48.596;9.238;2023-07-02T04:23:21;4.88;;;2.47;;
21822;SDS011;11074;48.596;9.238;2023-07-02T04:25:47;3.60;;;2.63;;
21822;SDS011;11074;48.596;9.238;2023-07-02T04:28:13;5.38;;;2.10;;
21822;SDS011;11074;48.596;9.238;2023-07-02T04:30:38;4.90;;;2.20;;
21822;SDS011;11074;48.596;9.238;2023-07-02T04:33:05;3.15;;;2.17;;
21822;SDS011;11074;48.596;9.238;2023-07-02T04:35:34;3.17;;;2.00;;
21822;SDS011;11074;48.596;9.238;2023-07-02T04:38:03;4.25;;;2.13;;
21822;SDS011;11074;48.596;9.238;2023-07-02T04:40:28;3.95;;;2.00;;
21822;SDS011;11074;48.596;9.238;2023-07-02T04:42:54;4.03;;;1.77;;
21822;SDS011;11074;48.596;9.238;2023-07-02T04:45:23;2.83;;;2.08;;
21822;SDS011;11074;48.596;9.238;2023-07-02T04:47:51;4.40;;;2.00;;
21822;SDS011;11074;48.596;9.238;2023-07-02T04:50:25;2.20;;;1.90;;
21822;SDS011;11074;48.596;9.238;2023-07-02T04:52:51;3.42;;;2.28;;
21822;SDS011;11074;48.596;9.238;2023-07-02T04:55:16;3.55;;;2.10;;
21822;SDS011;11074;48.596;9.238;2023-07-02T04:57:42;2.72;;;2.15;;
21822;SDS011;11074;48.596;9.238;2023-07-02T05:00:12;3.40;;;2.28;;
21822;SDS011;11074;48.596;9.238;2023-07-02T05:02:39;4.18;;;2.38;;
21822;SDS011;11074;48.596;9.238;2023-07-02T05:05:05;3.85;;;2.30;;
21822;SDS011;11074;48.596;9.238;2023-07-02T05:07:32;3.97;;;2.30;;
21822;SDS011;11074;48.596;9.238;2023-07-02T05:09:58;3.55;;;2.38;;
21822;SDS011;11074;48.596;9.238;2023-07-02T05:12:24;3.35;;;2.30;;
21822;SDS011;11074;48.596;9.238;2023-07-02T05:14:49;3.75;;;2.20;;
21822;SDS011;11074;48.596;9.238;2023-07-02T05:17:15;5.13;;;2.42;;
21822;SDS011;11074;48.596;9.238;2023-07-02T05:19:41;3.58;;;2.20;;
21822;SDS011;11074;48.596;9.238;2023-07-02T05:22:08;3.95;;;2.10;;
21822;SDS011;11074;48.596;9.238;2023-07-02T05:24:34;2.80;;;2.13;;
21822;SDS011;11074;48.596;9.238;2023-07-02T05:26:59;3.25;;;1.90;;
21822;SDS011;11074;48.596;9.238;2023-07-02T05:29:25;3.63;;;2.10;;
21822;SDS011;11074;48.596;9.238;2023-07-02T05:31:51;4.28;;;2.35;;
21822;SDS011;11074;48.596;9.238;2023-07-02T05:34:16;3.30;;;2.20;;
21822;SDS011;11074;48.596;9.238;2023-07-02T05:36:42;2.92;;;2.20;;
21822;SDS011;11074;48.596;9.238;2023-07-02T05:39:08;3.60;;;2.67;;
21822;SDS011;11074;48.596;9.238;2023-07-02T05:41:33;5.65;;;2.40;;
21822;SDS011;11074;48.596;9.238;2023-07-02T05:43:59;4.72;;;2.50;;
21822;SDS011;11074;48.596;9.238;2023-07-02T05:46:25;2.92;;;2.25;;
21822;SDS011;11074;48.596;9.238;2023-07-02T05:48:51;2.95;;;2.20;;
21822;SDS011;11074;48.596;9.238;2023-07-02T05:51:23;3.15;;;2.25;;
21822;SDS011;11074;48.596;9.238;2023-07-02T05:53:49;4.35;;;2.30;;
21822;SDS011;11074;48.596;9.238;2023-07-02T05:56:16;4.07;;;2.40;;
21822;SDS011;11074;48.596;9.238;2023-07-02T05:58:43;4.43;;;2.20;;
21822;SDS011;11074;48.596;9.238;2023-07-02T06:01:10;4.15;;;2.40;;
21822;SDS011;11074;48.596;9.238;2023-07-02T06:03:36;4.40;;;2.92;;
21822;SDS011;11074;48.596;9.238;2023-07-02T06:06:02;3.65;;;2.38;;
21822;SDS011;11074;48.596;9.238;2023-07-02T06:08:28;4.18;;;2.42;;
21822;SDS011;11074;48.596;9.238;2023-07-02T06:10:54;3.72;;;2.30;;
21822;SDS011;11074;48.596;9.238;2023-07-02T06:13:19;6.00;;;2.17;;
21822;SDS011;11074;48.596;9.238;2023-07-02T06:15:45;2.95;;;2.33;;
21822;SDS011;11074;48.596;9.238;2023-07-02T06:18:12;3.53;;;2.20;;
21822;SDS011;11074;48.596;9.238;2023-07-02T06:20:39;3.08;;;2.15;;
21822;SDS011;11074;48.596;9.238;2023-07-02T06:23:05;4.60;;;2.40;;
21822;SDS011;11074;48.596;9.238;2023-07-02T06:25:31;4.45;;;2.50;;
21822;SDS011;11074;48.596;9.238;2023-07-02T06:27:56;5.45;;;2.35;;
21822;SDS011;11074;48.596;9.238;2023-07-02T06:30:23;4.25;;;2.65;;
21822;SDS011;11074;48.596;9.238;2023-07-02T06:32:49;4.82;;;2.70;;
21822;SDS011;11074;48.596;9.238;2023-07-02T06:35:17;4.35;;;2.58;;
21822;SDS011;11074;48.596;9.238;2023-07-02T06:37:43;4.63;;;2.63;;
21822;SDS011;11074;48.596;9.238;2023-07-02T06:40:09;5.72;;;3.30;;
21822;SDS011;11074;48.596;9.238;2023-07-02T06:42:35;5.95;;;3.30;;
21822;SDS011;11074;48.596;9.238;2023-07-02T06:45:01;6.30;;;3.17;;
21822;SDS011;11074;48.596;9.238;2023-07-02T06:47:27;6.75;;;3.33;;
21822;SDS011;11074;48.596;9.238;2023-07-02T06:49:53;6.45;;;3.47;;
21822;SDS011;11074;48.596;9.238;2023-07-02T06:52:19;6.45;;;3.20;;
21822;SDS011;11074;48.596;9.238;2023-07-02T06:54:45;4.97;;;3.13;;
21822;SDS011;11074;48.596;9.238;2023-07-02T06:57:12;8.85;;;3.90;;
21822;SDS011;11074;48.596;9.238;2023-07-02T06:59:38;8.07;;;3.20;;
21822;SDS011;11074;48.596;9.238;2023-07-02T07:02:04;5.32;;;3.22;;
21822;SDS011;11074;48.596;9.238;2023-07-02T07:04:30;6.40;;;3.60;;
21822;SDS011;11074;48.596;9.238;2023-07-02T07:06:55;6.82;;;3.90;;
21822;SDS011;11074;48.596;9.238;2023-07-02T07:09:21;7.35;;;4.03;;
21822;SDS011;11074;48.596;9.238;2023-07-02T07:11:47;7.97;;;3.83;;
21822;SDS011;11074;48.596;9.238;2023-07-02T07:14:13;6.88;;;3.72;;
21822;SDS011;11074;48.596;9.238;2023-07-02T07:16:39;8.57;;;4.20;;
21822;SDS011;11074;48.596;9.238;2023-07-02T07:19:05;7.43;;;3.90;;
21822;SDS011;11074;48.596;9.238;2023-07-02T07:21:32;7.70;;;4.43;;
21822;SDS011;11074;48.596;9.238;2023-07-02T07:23:59;8.80;;;4.15;;
21822;SDS011;11074;48.596;9.238;2023-07-02T07:26:25;10.82;;;5.18;;
21822;SDS011;11074;48.596;9.238;2023-07-02T07:28:50;11.38;;;5.28;;
21822;SDS011;11074;48.596;9.238;2023-07-02T07:31:16;10.98;;;6.32;;
21822;SDS011;11074;48.596;9.238;2023-07-02T07:33:42;13.65;;;6.10;;
21822;SDS011;11074;48.596;9.238;2023-07-02T07:36:08;11.68;;;6.35;;
21822;SDS011;11074;48.596;9.238;2023-07-02T07:38:34;11.20;;;6.07;;
21822;SDS011;11074;48.596;9.238;2023-07-02T07:41:00;9.77;;;6.13;;
21822;SDS011;11074;48.596;9.238;2023-07-02T07:43:25;10.75;;;6.40;;
21822;SDS011;11074;48.596;9.238;2023-07-02T07:45:51;11.88;;;6.63;;
21822;SDS011;11074;48.596;9.238;2023-07-02T07:48:16;12.93;;;7.10;;
21822;SDS011;11074;48.596;9.238;2023-07-02T07:50:42;12.55;;;7.15;;
21822;SDS011;11074;48.596;9.238;2023-07-02T07:53:08;12.48;;;6.80;;
21822;SDS011;11074;48.596;9.238;2023-07-02T07:55:34;13.30;;;7.15;;
21822;SDS011;11074;48.596;9.238;2023-07-02T07:57:59;13.95;;;6.75;;
21822;SDS011;11074;48.596;9.238;2023-07-02T08:00:25;13.93;;;7.30;;
21822;SDS011;11074;48.596;9.238;2023-07-02T08:02:52;11.23;;;6.63;;
21822;SDS011;11074;48.596;9.238;2023-07-02T08:05:20;13.10;;;7.88;;
21822;SDS011;11074;48.596;9.238;2023-07-02T08:07:46;16.98;;;8.38;;
21822;SDS011;11074;48.596;9.238;2023-07-02T08:10:12;15.40;;;8.98;;
21822;SDS011;11074;48.596;9.238;2023-07-02T08:12:37;14.52;;;8.25;;
21822;SDS011;11074;48.596;9.238;2023-07-02T08:15:03;16.38;;;9.45;;
21822;SDS011;11074;48.596;9.238;2023-07-02T08:17:30;17.27;;;10.05;;
21822;SDS011;11074;48.596;9.238;2023-07-02T08:19:59;22.40;;;9.30;;
21822;SDS011;11074;48.596;9.238;2023-07-02T08:22:24;16.83;;;9.02;;
21822;SDS011;11074;48.596;9.238;2023-07-02T08:24:50;17.55;;;9.93;;
21822;SDS011;11074;48.596;9.238;2023-07-02T08:27:16;16.88;;;9.88;;
21822;SDS011;11074;48.596;9.238;2023-07-02T08:29:45;17.88;;;9.85;;
21822;SDS011;11074;48.596;9.238;2023-07-02T08:32:12;17.80;;;10.43;;
21822;SDS011;11074;48.596;9.238;2023-07-02T08:34:37;19.23;;;9.68;;
21822;SDS011;11074;48.596;9.238;2023-07-02T08:37:03;19.23;;;10.70;;
21822;SDS011;11074;48.596;9.238;2023-07-02T08:39:29;19.30;;;10.32;;
21822;SDS011;11074;48.596;9.238;2023-07-02T08:41:54;15.93;;;9.60;;
21822;SDS011;11074;48.596;9.238;2023-07-02T08:44:20;19.27;;;9.63;;
21822;SDS011;11074;48.596;9.238;2023-07-02T08:46:47;18.63;;;9.95;;
21822;SDS011;11074;48.596;9.238;2023-07-02T08:49:18;16.30;;;8.57;;
21822;SDS011;11074;48.596;9.238;2023-07-02T08:51:44;17.73;;;9.63;;
21822;SDS011;11074;48.596;9.238;2023-07-02T08:54:12;20.30;;;9.30;;
21822;SDS011;11074;48.596;9.238;2023-07-02T08:56:38;14.85;;;9.15;;
21822;SDS011;11074;48.596;9.238;2023-07-02T08:59:07;13.95;;;9.18;;
21822;SDS011;11074;48.596;9.238;2023-07-02T09:01:50;14.57;;;8.80;;
21822;SDS011;11074;48.596;9.238;2023-07-02T09:04:18;18.48;;;8.82;;
21822;SDS011;11074;48.596;9.238;2023-07-02T09:06:51;14.55;;;8.93;;
21822;SDS011;11074;48.596;9.238;2023-07-02T09:09:45;13.48;;;8.45;;
21822;SDS011;11074;48.596;9.238;2023-07-02T09:12:21;15.35;;;9.00;;
21822;SDS011;11074;48.596;9.238;2023-07-02T09:14:53;18.75;;;9.73;;
21822;SDS011;11074;48.596;9.238;2023-07-02T09:17:37;17.27;;;9.60;;
21822;SDS011;11074;48.596;9.238;2023-07-02T09:20:04;17.15;;;9.65;;
21822;SDS011;11074;48.596;9.238;2023-07-02T09:22:34;16.13;;;8.82;;
21822;SDS011;11074;48.596;9.238;2023-07-02T09:25:01;15.25;;;8.55;;
21822;SDS011;11074;48.596;9.238;2023-07-02T09:27:40;14.63;;;8.93;;
21822;SDS011;11074;48.596;9.238;2023-07-02T09:30:08;15.52;;;8.98;;
21822;SDS011;11074;48.596;9.238;2023-07-02T09:32:38;13.27;;;8.77;;
21822;SDS011;11074;48.596;9.238;2023-07-02T09:35:05;14.00;;;9.35;;
21822;SDS011;11074;48.596;9.238;2023-07-02T09:37:31;14.55;;;8.95;;
21822;SDS011;11074;48.596;9.238;2023-07-02T09:39:57;14.40;;;9.15;;
21822;SDS011;11074;48.596;9.238;2023-07-02T09:42:25;13.85;;;9.02;;
21822;SDS011;11074;48.596;9.238;2023-07-02T09:44:52;14.65;;;9.18;;
21822;SDS011;11074;48.596;9.238;2023-07-02T09:47:21;15.30;;;9.23;;
21822;SDS011;11074;48.596;9.238;2023-07-02T09:49:51;15.32;;;9.48;;
21822;SDS011;11074;48.596;9.238;2023-07-02T09:52:21;16.50;;;9.98;;
21822;SDS011;11074;48.596;9.238;2023-07-02T09:54:48;15.93;;;9.50;;
21822;SDS011;11074;48.596;9.238;2023-07-02T09:57:13;16.00;;;10.20;;
21822;SDS011;11074;48.596;9.238;2023-07-02T09:59:40;18.60;;;10.15;;
21822;SDS011;11074;48.596;9.238;2023-07-02T10:02:07;18.52;;;12.27;;
21822;SDS011;11074;48.596;9.238;2023-07-02T10:04:47;19.02;;;11.25;;
21822;SDS011;11074;48.596;9.238;2023-07-02T10:07:25;18.80;;;11.73;;
21822;SDS011;11074;48.596;9.238;2023-07-02T10:09:59;16.33;;;10.65;;
21822;SDS011;11074;48.596;9.238;2023-07-02T10:12:26;15.45;;;10.32;;
21822;SDS011;11074;48.596;9.238;2023-07-02T10:14:54;18.73;;;11.45;;
21822;SDS011;11074;48.596;9.238;2023-07-02T10:17:27;18.17;;;11.10;;
21822;SDS011;11074;48.596;9.238;2023-07-02T10:19:56;19.45;;;12.38;;
21822;SDS011;11074;48.596;9.238;2023-07-02T10:22:24;20.67;;;12.70;;
21822;SDS011;11074;48.596;9.238;2023-07-02T10:24:59;22.52;;;12.38;;
21822;SDS011;11074;48.596;9.238;2023-07-02T10:27:35;20.75;;;13.27;;
21822;SDS011;11074;48.596;9.238;2023-07-02T10:30:07;18.60;;;12.40;;
21822;SDS011;11074;48.596;9.238;2023-07-02T10:32:35;18.77;;;12.13;;
21822;SDS011;11074;48.596;9.238;2023-07-02T10:35:13;19.00;;;12.75;;
21822;SDS011;11074;48.596;9.238;2023-07-02T10:37:40;19.38;;;11.60;;
21822;SDS011;11074;48.596;9.238;2023-07-02T10:40:07;19.02;;;11.63;;
21822;SDS011;11074;48.596;9.238;2023-07-02T10:42:44;18.60;;;11.32;;
21822;SDS011;11074;48.596;9.238;2023-07-02T10:45:17;18.38;;;11.50;;
21822;SDS011;11074;48.596;9.238;2023-07-02T10:47:44;21.67;;;12.95;;
21822;SDS011;11074;48.596;9.238;2023-07-02T10:50:17;22.08;;;11.90;;
21822;SDS011;11074;48.596;9.238;2023-07-02T10:52:45;22.00;;;12.75;;
21822;SDS011;11074;48.596;9.238;2023-07-02T10:55:16;21.13;;;12.40;;
21822;SDS011;11074;48.596;9.238;2023-07-02T10:57:44;20.92;;;13.25;;
21822;SDS011;11074;48.596;9.238;2023-07-02T11:00:10;22.83;;;13.65;;
21822;SDS011;11074;48.596;9.238;2023-07-02T11:02:39;21.10;;;12.73;;
21822;SDS011;11074;48.596;9.238;2023-07-02T11:05:06;21.27;;;13.95;;
21822;SDS011;11074;48.596;9.238;2023-07-02T11:07:40;19.73;;;12.82;;
21822;SDS011;11074;48.596;9.238;2023-07-02T11:10:07;19.85;;;12.60;;
21822;SDS011;11074;48.596;9.238;2023-07-02T11:12:34;19.58;;;12.27;;
21822;SDS011;11074;48.596;9.238;2023-07-02T11:15:08;20.63;;;13.43;;
21822;SDS011;11074;48.596;9.238;2023-07-02T11:17:44;23.27;;;14.15;;
21822;SDS011;11074;48.596;9.238;2023-07-02T11:20:10;21.02;;;13.18;;
21822;SDS011;11074;48.596;9.238;2023-07-02T11:22:39;21.70;;;14.00;;
21822;SDS011;11074;48.596;9.238;2023-07-02T11:25:12;23.13;;;13.82;;
21822;SDS011;11074;48.596;9.238;2023-07-02T11:27:43;22.35;;;13.73;;
21822;SDS011;11074;48.596;9.238;2023-07-02T11:30:10;20.55;;;13.18;;
21822;SDS011;11074;48.596;9.238;2023-07-02T11:32:53;25.13;;;14.45;;
21822;SDS011;11074;48.596;9.238;2023-07-02T11:35:19;24.92;;;14.38;;
21822;SDS011;11074;48.596;9.238;2023-07-02T11:37:46;23.85;;;14.80;;
21822;SDS011;11074;48.596;9.238;2023-07-02T11:40:19;23.25;;;14.18;;
21822;SDS011;11074;48.596;9.238;2023-07-02T11:42:45;21.88;;;14.43;;
21822;SDS011;11074;48.596;9.238;2023-07-02T11:45:10;20.35;;;13.75;;
21822;SDS011;11074;48.596;9.238;2023-07-02T11:47:37;20.42;;;13.82;;
21822;SDS011;11074;48.596;9.238;2023-07-02T11:50:04;22.40;;;14.18;;
21822;SDS011;11074;48.596;9.238;2023-07-02T11:52:31;21.42;;;13.90;;
21822;SDS011;11074;48.596;9.238;2023-07-02T11:54:56;21.35;;;13.57;;
21822;SDS011;11074;48.596;9.238;2023-07-02T11:57:22;19.48;;;12.80;;
21822;SDS011;11074;48.596;9.238;2023-07-02T11:59:48;18.67;;;12.20;;
21822;SDS011;11074;48.596;9.238;2023-07-02T12:02:15;21.33;;;13.32;;
21822;SDS011;11074;48.596;9.238;2023-07-02T12:04:41;19.67;;;14.40;;
21822;SDS011;11074;48.596;9.238;2023-07-02T12:07:07;21.38;;;13.40;;
21822;SDS011;11074;48.596;9.238;2023-07-02T12:09:33;18.08;;;11.93;;
21822;SDS011;11074;48.596;9.238;2023-07-02T12:11:58;17.88;;;12.00;;
21822;SDS011;11074;48.596;9.238;2023-07-02T12:14:24;20.10;;;12.98;;
21822;SDS011;11074;48.596;9.238;2023-07-02T12:16:50;16.55;;;11.38;;
21822;SDS011;11074;48.596;9.238;2023-07-02T12:19:15;18.15;;;11.80;;
21822;SDS011;11074;48.596;9.238;2023-07-02T12:21:41;19.40;;;12.00;;
21822;SDS011;11074;48.596;9.238;2023-07-02T12:24:07;19.05;;;11.38;;
21822;SDS011;11074;48.596;9.238;2023-07-02T12:26:35;19.23;;;12.00;;
21822;SDS011;11074;48.596;9.238;2023-07-02T12:29:01;20.10;;;12.38;;
21822;SDS011;11074;48.596;9.238;2023-07-02T12:31:27;17.58;;;11.45;;
21822;SDS011;11074;48.596;9.238;2023-07-02T12:33:52;19.60;;;12.65;;
21822;SDS011;11074;48.596;9.238;2023-07-02T12:36:18;19.10;;;12.45;;
21822;SDS011;11074;48.596;9.238;2023-07-02T12:38:44;20.33;;;12.75;;
21822;SDS011;11074;48.596;9.238;2023-07-02T12:41:09;17.98;;;12.27;;
21822;SDS011;11074;48.596;9.238;2023-07-02T12:43:35;18.08;;;11.52;;
21822;SDS011;11074;48.596;9.238;2023-07-02T12:46:00;15.07;;;10.73;;
21822;SDS011;11074;48.596;9.238;2023-07-02T12:48:26;17.80;;;11.32;;
21822;SDS011;11074;48.596;9.238;2023-07-02T12:50:55;17.10;;;11.30;;
21822;SDS011;11074;48.596;9.238;2023-07-02T12:53:22;17.35;;;11.90;;
21822;SDS011;11074;48.596;9.238;2023-07-02T12:55:50;16.42;;;10.90;;
21822;SDS011;11074;48.596;9.238;2023-07-02T12:58:15;15.60;;;10.52;;
21822;SDS011;11074;48.596;9.238;2023-07-02T13:00:41;16.90;;;10.95;;
21822;SDS011;11074;48.596;9.238;2023-07-02T13:03:10;21.17;;;11.35;;
21822;SDS011;11074;48.596;9.238;2023-07-02T13:05:37;15.32;;;11.32;;
21822;SDS011;11074;48.596;9.238;2023-07-02T13:08:04;18.42;;;10.85;;
21822;SDS011;11074;48.596;9.238;2023-07-02T13:10:31;19.63;;;11.55;;
21822;SDS011;11074;48.596;9.238;2023-07-02T13:12:58;19.42;;;11.95;;
21822;SDS011;11074;48.596;9.238;2023-07-02T13:15:25;14.73;;;10.60;;
21822;SDS011;11074;48.596;9.238;2023-07-02T13:17:51;16.33;;;11.15;;
21822;SDS011;11074;48.596;9.238;2023-07-02T13:20:17;17.23;;;10.98;;
21822;SDS011;11074;48.596;9.238;2023-07-02T13:22:42;18.65;;;11.15;;
21822;SDS011;11074;48.596;9.238;2023-07-02T13:25:08;19.17;;;11.82;;
21822;SDS011;11074;48.596;9.238;2023-07-02T13:27:34;17.63;;;11.32;;
21822;SDS011;11074;48.596;9.238;2023-07-02T13:30:00;17.63;;;11.50;;
21822;SDS011;11074;48.596;9.238;2023-07-02T13:32:26;17.83;;;11.05;;
21822;SDS011;11074;48.596;9.238;2023-07-02T13:34:51;18.05;;;11.25;;
21822;SDS011;11074;48.596;9.238;2023-07-02T13:37:17;16.63;;;11.18;;
21822;SDS011;11074;48.596;9.238;2023-07-02T13:39:46;17.90;;;12.25;;
21822;SDS011;11074;48.596;9.238;2023-07-02T13:42:14;16.73;;;11.38;;
21822;SDS011;11074;48.596;9.238;2023-07-02T13:44:40;17.77;;;11.60;;
21822;SDS011;11074;48.596;9.238;2023-07-02T13:47:07;20.65;;;11.93;;
21822;SDS011;11074;48.596;9.238;2023-07-02T13:49:33;17.75;;;11.18;;
21822;SDS011;11074;48.596;9.238;2023-07-02T13:51:59;19.33;;;12.30;;
21822;SDS011;11074;48.596;9.238;2023-07-02T13:54:25;20.50;;;12.85;;
21822;SDS011;11074;48.596;9.238;2023-07-02T13:56:51;17.80;;;12.85;;
21822;SDS011;11074;48.596;9.238;2023-07-02T13:59:18;22.00;;;12.27;;
21822;SDS011;11074;48.596;9.238;2023-07-02T14:01:45;20.08;;;13.27;;
21822;SDS011;11074;48.596;9.238;2023-07-02T14:04:12;18.27;;;12.73;;
21822;SDS011;11074;48.596;9.238;2023-07-02T14:06:40;19.02;;;12.52;;
21822;SDS011;11074;48.596;9.238;2023-07-02T14:09:06;21.33;;;12.95;;
21822;SDS011;11074;48.596;9.238;2023-07-02T14:11:34;19.60;;;13.95;;
21822;SDS011;11074;48.596;9.238;2023-07-02T14:14:04;21.17;;;13.25;;
21822;SDS011;11074;48.596;9.238;2023-07-02T14:16:30;22.15;;;13.57;;
21822;SDS011;11074;48.596;9.238;2023-07-02T14:18:56;22.65;;;13.93;;
21822;SDS011;11074;48.596;9.238;2023-07-02T14:21:22;17.20;;;12.27;;
21822;SDS011;11074;48.596;9.238;2023-07-02T14:23:48;19.63;;;13.15;;
21822;SDS011;11074;48.596;9.238;2023-07-02T14:26:14;19.17;;;13.32;;
21822;SDS011;11074;48.596;9.238;2023-07-02T14:28:40;19.13;;;13.23;;
21822;SDS011;11074;48.596;9.238;2023-07-02T14:31:05;18.45;;;12.95;;
21822;SDS011;11074;48.596;9.238;2023-07-02T14:33:32;18.67;;;12.75;;
21822;SDS011;11074;48.596;9.238;2023-07-02T14:36:01;23.27;;;13.38;;